KELM

Elmira / Corning Regional Airport

Elmira/Corning, New York, USA
METAR KELM 230453Z AUTO 00000KT 10SM OVC075 06/03 A3004 RMK AO2 SLP177 T00610033 401000033
Observed Flight Rules
Oct-23 @ 04:53 UTC (24 minutes ago) Visual Flight Rules
Visibility Clouds
10 miles
  • Overcast at 7,500' AGL
Temperatures Readings
Current 6°C / 43°F
Dewpoint 3°C / 37°F
Humidity 81%
Altimeter 30.04" Hg
Pressure 1017.7 hPa
Elevation 302
METAR KELM 230453Z AUTO 00000KT 10SM OVC075 06/03 A3004 RMK AO2 SLP177 T00610033 401000033
Observed Flight Rules
Oct-23 @ 04:53 UTC
(24 minutes ago)
VFR
Clouds
  • Overcast at 7,500' AGL
Temperature Dewpoint
6°C / 43°F 3°C / 37°F
Humidity Altimeter Pressure
81% 30.04" Hg 1017.7 hPa